Time;durP1;ratioP1;P1;durP2;ratioP2;P2;SDS_P1;SDS_P2;PMS_P1;PMS_P2;Temp;Humidity;BMP_temperature;BMP_pressure;BME280_temperature;BME280_humidity;BME280_pressure;Samples;Min_cycle;Max_cycle;Signal;HPM_P1;HPM_P2
2023/08/12 00:00:08;;;;;;;;;;;;;;;13.76;71.10;101917.91;107374;1259;124233;-83
2023/08/12 00:02:55;;;;;;;;;;;;;;;13.71;71.12;101920.56;107596;1254;74839;-83
2023/08/12 00:05:22;;;;;;;;;;;;;;;13.68;71.28;101921.52;107749;1254;124002;-83
2023/08/12 00:07:49;;;;;;;;;;;;;;;13.65;71.43;101919.50;107685;1259;71182;-83
2023/08/12 00:10:16;;;;;;;;;;;;;;;13.62;71.47;101918.70;108145;1254;60428;-83
2023/08/12 00:12:43;;;;;;;;;;;;;;;13.57;71.47;101916.09;108053;1259;124639;-83
2023/08/12 00:15:10;;;;;;;;;;;;;;;13.54;71.60;101916.52;108159;1258;71546;-83
2023/08/12 00:17:40;;;;;;;;;;;;;;;13.51;71.50;101916.05;107858;1254;124731;-83
2023/08/12 00:20:10;;;;;;;;;;;;;;;13.49;71.80;101919.54;107471;1260;73236;-83
2023/08/12 00:22:38;;;;;;;;;;;;;;;13.48;71.83;101918.63;107627;1253;60374;-83
2023/08/12 00:25:07;;;;;;;;;;;;;;;13.48;71.90;101917.21;107224;1262;124733;-82
2023/08/12 00:27:40;;;;;;;;;;;;;;;13.47;71.99;101912.59;107746;1258;73061;-83
2023/08/12 00:30:07;;;;;;;;;;;;;;;13.47;72.05;101912.94;107440;1253;125023;-82
2023/08/12 00:32:38;;;;;;;;;;;;;;;13.46;72.20;101918.17;107570;1254;71590;-83
2023/08/12 00:35:05;;;;;;;;;;;;;;;13.45;72.31;101922.40;107398;1254;124846;-82
2023/08/12 00:37:34;;;;;;;;;;;;;;;13.45;72.39;101925.75;107549;1254;60505;-83
2023/08/12 00:40:09;;;;;;;;;;;;;;;13.45;72.39;101926.27;107301;1253;72409;-82
2023/08/12 00:42:36;;;;;;;;;;;;;;;13.45;72.40;101922.76;107310;1255;125223;-83
2023/08/12 00:45:03;;;;;;;;;;;;;;;13.46;72.44;101925.08;107302;1259;71248;-83
2023/08/12 00:47:36;;;;;;;;;;;;;;;13.46;72.52;101920.32;107381;1257;125400;-83
2023/08/12 00:50:05;;;;;;;;;;;;;;;13.45;72.46;101919.06;107274;1254;59320;-85
2023/08/12 00:55:37;;;;;;;;;;;;;;;13.44;72.65;101920.09;107521;1267;67112;-87
2023/08/12 00:58:10;;;;;;;;;;;;;;;13.43;72.75;101923.40;107304;1254;71384;-86
2023/08/12 01:00:43;;;;;;;;;;;;;;;13.41;72.65;101916.29;107431;1253;124513;-82
2023/08/12 01:03:19;;;;;;;;;;;;;;;13.40;72.74;101918.58;107301;1260;59198;-82
2023/08/12 01:05:48;;;;;;;;;;;;;;;13.41;72.89;101921.40;107567;1254;124520;-83
2023/08/12 01:08:20;;;;;;;;;;;;;;;13.40;72.90;101922.08;107530;1254;67593;-83
2023/08/12 01:10:51;;;;;;;;;;;;;;;13.40;72.88;101922.44;107295;1255;71275;-83
2023/08/12 01:13:40;;;;;;;;;;;;;;;13.41;72.92;101922.79;107118;1254;124413;-84
2023/08/12 01:16:36;;;;;;;;;;;;;;;13.41;72.91;101920.89;107246;1263;60143;-85
2023/08/12 01:19:15;;;;;;;;;;;;;;;13.42;72.94;101918.95;107406;1254;124534;-86
2023/08/12 01:21:43;;;;;;;;;;;;;;;13.41;72.98;101918.77;107408;1260;67043;-83
2023/08/12 01:24:12;;;;;;;;;;;;;;;13.42;72.99;101917.21;107634;1255;125066;-83
2023/08/12 01:26:59;;;;;;;;;;;;;;;13.41;73.05;101916.46;107517;1254;60300;-88
2023/08/12 01:29:29;;;;;;;;;;;;;;;13.41;73.06;101915.92;107367;1254;124778;-85
2023/08/12 01:32:03;;;;;;;;;;;;;;;13.39;73.05;101911.46;107496;1260;73672;-85
2023/08/12 01:34:40;;;;;;;;;;;;;;;13.39;73.09;101911.63;107438;1254;65578;-84
2023/08/12 01:37:07;;;;;;;;;;;;;;;13.37;73.05;101910.34;107571;1254;124692;-85
2023/08/12 01:39:34;;;;;;;;;;;;;;;13.35;73.07;101903.23;107784;1255;59603;-84
2023/08/12 01:42:16;;;;;;;;;;;;;;;13.35;73.06;101904.44;107591;1254;124970;-84
2023/08/12 01:44:44;;;;;;;;;;;;;;;13.34;73.22;101906.54;107721;1255;73032;-84
2023/08/12 01:47:30;;;;;;;;;;;;;;;13.32;73.08;101908.26;107239;1254;124691;-84
2023/08/12 01:52:58;;;;;;;;;;;;;;;13.28;73.27;101909.29;107389;1254;60325;-85
2023/08/12 01:55:31;;;;;;;;;;;;;;;13.26;73.30;101913.83;107318;1260;60501;-85
2023/08/12 02:00:52;;;;;;;;;;;;;;;13.24;73.28;101910.05;107455;1258;124671;-85
2023/08/12 02:03:38;;;;;;;;;;;;;;;13.23;73.32;101905.26;107489;1257;73311;-84
2023/08/12 02:06:06;;;;;;;;;;;;;;;13.21;73.33;101904.15;107366;1255;124514;-84
2023/08/12 02:08:40;;;;;;;;;;;;;;;13.19;73.42;101906.73;107074;1262;60444;-85
2023/08/12 02:11:19;;;;;;;;;;;;;;;13.18;73.41;101902.81;107343;1254;124900;-84
2023/08/12 02:13:55;;;;;;;;;;;;;;;13.16;73.45;101899.93;107261;1254;67069;-86
2023/08/12 02:16:40;;;;;;;;;;;;;;;13.14;73.54;101900.75;107491;1254;72749;-86
2023/08/12 02:19:14;;;;;;;;;;;;;;;13.13;73.55;101900.87;107302;1254;124522;-86
2023/08/12 02:21:48;;;;;;;;;;;;;;;13.11;73.44;101904.50;107333;1254;60558;-85
2023/08/12 02:24:24;;;;;;;;;;;;;;;13.09;73.53;101901.98;107248;1254;124736;-85
2023/08/12 02:27:10;;;;;;;;;;;;;;;13.08;73.58;101899.65;107169;1261;66884;-86
2023/08/12 02:33:19;;;;;;;;;;;;;;;13.06;73.49;101907.68;106976;1262;60377;-85
2023/08/12 02:36:09;;;;;;;;;;;;;;;13.05;73.69;101904.84;106948;1260;123612;-87
2023/08/12 02:38:44;;;;;;;;;;;;;;;13.03;73.70;101910.07;106926;1259;73427;-85
2023/08/12 02:41:27;;;;;;;;;;;;;;;13.02;73.68;101908.64;106698;1261;124945;-86
2023/08/12 02:44:14;;;;;;;;;;;;;;;13.00;73.65;101906.11;107045;1263;71554;-87
2023/08/12 02:46:41;;;;;;;;;;;;;;;12.95;73.57;101903.10;107021;1260;60518;-86
2023/08/12 02:49:20;;;;;;;;;;;;;;;12.95;73.74;101903.27;106756;1266;124633;-85
2023/08/12 02:55:15;;;;;;;;;;;;;;;12.94;73.78;101901.15;106810;1260;125053;-88
2023/08/12 03:04:26;;;;;;;;;;;;;;;12.97;73.94;101892.24;107094;1260;61559;-86
2023/08/12 03:17:00;;;;;;;;;;;;;;;13.11;73.87;101893.41;107024;1260;59257;-87
2023/08/12 03:20:04;;;;;;;;;;;;;;;13.15;73.99;101893.19;107275;1256;60476;-89
2023/08/12 03:22:37;;;;;;;;;;;;;;;13.19;73.83;101895.63;107604;1257;73932;-84
2023/08/12 03:25:14;;;;;;;;;;;;;;;13.24;73.83;101900.52;107425;1257;123966;-84
2023/08/12 03:27:47;;;;;;;;;;;;;;;13.25;73.78;101897.58;107259;1254;72484;-83
2023/08/12 03:30:14;;;;;;;;;;;;;;;13.27;73.61;101899.38;107057;1257;124220;-83
2023/08/12 03:35:56;;;;;;;;;;;;;;;13.36;73.74;101905.20;107248;1257;124039;-84
2023/08/12 03:38:24;;;;;;;;;;;;;;;13.40;73.67;101901.98;107186;1257;65570;-84
2023/08/12 03:41:21;;;;;;;;;;;;;;;13.47;73.53;101904.82;107147;1257;72723;-85
2023/08/12 03:43:48;;;;;;;;;;;;;;;13.52;73.54;101905.17;107467;1260;60379;-85
2023/08/12 03:46:24;;;;;;;;;;;;;;;13.57;73.59;101907.80;107209;1255;60448;-86
2023/08/12 03:49:03;;;;;;;;;;;;;;;13.65;73.39;101913.48;107244;1257;122779;-84
2023/08/12 03:51:30;;;;;;;;;;;;;;;13.74;73.44;101909.17;107661;1257;67174;-84
2023/08/12 03:54:04;;;;;;;;;;;;;;;13.80;73.32;101905.67;107531;1257;124009;-84
2023/08/12 03:56:37;;;;;;;;;;;;;;;13.87;73.23;101904.83;107555;1254;60237;-84
2023/08/12 03:59:04;;;;;;;;;;;;;;;13.95;73.13;101903.83;107315;1254;60312;-85
2023/08/12 04:01:32;;;;;;;;;;;;;;;14.00;72.97;101909.27;107371;1258;73893;-85
2023/08/12 04:04:17;;;;;;;;;;;;;;;14.05;72.92;101911.16;107355;1259;66850;-85
2023/08/12 04:06:44;;;;;;;;;;;;;;;14.09;72.74;101908.48;107193;1254;124072;-86
2023/08/12 04:09:13;;;;;;;;;;;;;;;14.14;72.63;101904.20;107630;1254;60419;-85
2023/08/12 04:12:08;;;;;;;;;;;;;;;14.21;72.66;101899.45;107345;1259;124603;-85
2023/08/12 04:14:41;;;;;;;;;;;;;;;14.34;72.66;101903.00;107478;1254;72166;-84
2023/08/12 04:17:26;;;;;;;;;;;;;;;14.46;72.58;101906.69;107289;1257;124190;-84
2023/08/12 04:20:05;;;;;;;;;;;;;;;14.63;72.48;101906.99;107419;1254;72676;-84
2023/08/12 04:22:39;;;;;;;;;;;;;;;14.74;72.20;101905.02;107402;1259;60457;-84
2023/08/12 04:25:14;;;;;;;;;;;;;;;14.94;72.20;101904.10;107306;1254;124517;-84
2023/08/12 04:27:49;;;;;;;;;;;;;;;15.10;71.97;101903.08;107359;1254;73706;-84
2023/08/12 04:30:29;;;;;;;;;;;;;;;15.32;71.92;101904.31;107228;1254;124229;-84
2023/08/12 04:32:56;;;;;;;;;;;;;;;15.66;71.77;101901.41;107397;1254;72704;-84
2023/08/12 04:35:31;;;;;;;;;;;;;;;16.15;72.03;101900.52;107608;1257;124777;-83
2023/08/12 04:37:57;;;;;;;;;;;;;;;16.80;71.82;101893.80;107784;1255;60434;-84
2023/08/12 04:40:26;;;;;;;;;;;;;;;17.54;71.26;101888.45;107589;1254;72590;-84
2023/08/12 04:42:54;;;;;;;;;;;;;;;18.28;70.52;101889.59;107460;1254;123953;-84
2023/08/12 04:45:32;;;;;;;;;;;;;;;19.57;70.92;101881.65;107427;1259;72656;-84
2023/08/12 04:48:11;;;;;;;;;;;;;;;21.75;70.13;101880.03;107378;1257;124679;-83
2023/08/12 04:50:42;;;;;;;;;;;;;;;24.06;67.82;101875.19;107682;1253;60470;-84
2023/08/12 04:53:09;;;;;;;;;;;;;;;25.64;64.48;101874.50;107604;1255;125189;-84
2023/08/12 04:55:40;;;;;;;;;;;;;;;26.59;61.51;101875.54;107560;1254;65628;-84
2023/08/12 04:58:07;;;;;;;;;;;;;;;27.02;59.06;101880.80;107576;1253;72955;-84
2023/08/12 05:00:35;;;;;;;;;;;;;;;26.90;57.11;101881.98;107527;1254;124205;-84
2023/08/12 05:03:02;;;;;;;;;;;;;;;26.55;55.70;101880.84;107764;1254;59314;-82
2023/08/12 05:05:33;;;;;;;;;;;;;;;26.37;55.15;101877.65;107407;1254;125347;-83
2023/08/12 05:08:14;;;;;;;;;;;;;;;26.69;55.15;101876.91;107373;1255;67334;-83
2023/08/12 05:10:42;;;;;;;;;;;;;;;27.98;54.75;101873.65;107481;1260;71460;-84
2023/08/12 05:13:10;;;;;;;;;;;;;;;28.84;53.02;101868.46;107410;1254;123802;-84
2023/08/12 05:15:37;;;;;;;;;;;;;;;28.66;51.10;101867.42;107173;1254;60451;-85
2023/08/12 05:18:19;;;;;;;;;;;;;;;27.93;50.08;101867.31;107261;1254;124292;-85
2023/08/12 05:20:48;;;;;;;;;;;;;;;27.14;49.85;101870.40;107298;1254;65944;-84
2023/08/12 05:23:22;;;;;;;;;;;;;;;26.68;49.96;101870.64;107731;1254;124470;-83
2023/08/12 05:25:49;;;;;;;;;;;;;;;26.42;50.03;101867.29;107788;1256;61273;-81
2023/08/12 05:28:23;;;;;;;;;;;;;;;26.34;50.18;101864.77;107261;1254;60420;-83
2023/08/12 05:30:54;;;;;;;;;;;;;;;26.27;50.13;101870.32;107425;1255;123797;-82
2023/08/12 05:33:22;;;;;;;;;;;;;;;26.12;49.98;101868.48;107544;1254;65567;-83
2023/08/12 05:35:49;;;;;;;;;;;;;;;25.98;49.88;101870.05;107304;1259;124640;-83
2023/08/12 05:38:17;;;;;;;;;;;;;;;25.85;50.14;101872.83;107541;1254;60448;-82
2023/08/12 05:40:49;;;;;;;;;;;;;;;25.71;50.03;101868.42;107653;1254;60572;-82
2023/08/12 05:43:16;;;;;;;;;;;;;;;25.51;50.02;101867.94;107603;1254;124356;-82
2023/08/12 05:45:50;;;;;;;;;;;;;;;25.29;50.03;101861.88;107511;1255;67043;-82
2023/08/12 05:48:17;;;;;;;;;;;;;;;25.07;50.18;101865.30;107610;1254;124675;-82
2023/08/12 05:50:44;;;;;;;;;;;;;;;24.79;50.33;101859.14;107909;1254;59167;-82
2023/08/12 05:53:11;;;;;;;;;;;;;;;24.46;50.46;101864.64;107525;1254;124131;-83
2023/08/12 05:55:46;;;;;;;;;;;;;;;24.15;50.83;101859.17;107915;1254;73657;-80
2023/08/12 05:58:20;;;;;;;;;;;;;;;23.81;51.01;101859.06;107151;1254;67296;-87
2023/08/12 06:00:47;;;;;;;;;;;;;;;23.49;51.37;101855.65;106923;1256;127614;-85
2023/08/12 06:03:15;;;;;;;;;;;;;;;23.19;51.61;101858.83;107483;1256;60491;-88
2023/08/12 06:05:56;;;;;;;;;;;;;;;22.97;52.30;101858.65;107311;1254;124807;-84
2023/08/12 06:08:23;;;;;;;;;;;;;;;22.82;52.75;101857.89;107678;1253;72600;-85
2023/08/12 06:10:52;;;;;;;;;;;;;;;22.70;52.66;101851.71;107668;1253;67461;-82
2023/08/12 06:13:19;;;;;;;;;;;;;;;22.58;52.83;101854.66;107684;1254;123701;-86
2023/08/12 06:15:46;;;;;;;;;;;;;;;22.40;52.90;101849.42;107602;1257;60436;-83
2023/08/12 06:21:19;;;;;;;;;;;;;;;22.17;53.36;101844.70;107469;1254;72567;-86
2023/08/12 06:23:54;;;;;;;;;;;;;;;22.13;53.64;101841.34;108103;1254;67065;-84
2023/08/12 06:26:20;;;;;;;;;;;;;;;22.10;53.49;101843.31;107835;1253;72705;-85
2023/08/12 06:28:52;;;;;;;;;;;;;;;22.04;53.65;101840.66;107472;1254;59208;-87
2023/08/12 06:31:19;;;;;;;;;;;;;;;22.01;53.76;101842.11;107480;1254;123699;-85
2023/08/12 06:33:46;;;;;;;;;;;;;;;21.97;53.57;101835.16;107617;1254;74173;-84
2023/08/12 06:36:33;;;;;;;;;;;;;;;21.94;53.74;101832.48;107081;1257;123986;-88
2023/08/12 06:39:15;;;;;;;;;;;;;;;21.92;53.79;101833.39;107487;1257;71145;-87
2023/08/12 06:41:43;;;;;;;;;;;;;;;21.92;53.78;101832.51;107329;1254;124129;-85
2023/08/12 06:44:10;;;;;;;;;;;;;;;21.91;53.65;101835.02;107710;1255;60370;-84
2023/08/12 06:46:39;;;;;;;;;;;;;;;21.90;53.60;101835.20;107517;1254;73933;-85
2023/08/12 06:49:07;;;;;;;;;;;;;;;21.92;53.72;101830.89;107191;1257;124038;-84
2023/08/12 06:51:34;;;;;;;;;;;;;;;21.94;53.81;101829.27;107310;1253;71114;-86
2023/08/12 06:54:01;;;;;;;;;;;;;;;21.98;53.85;101820.14;107220;1254;124045;-85
2023/08/12 06:56:40;;;;;;;;;;;;;;;22.02;53.73;101816.72;107532;1255;60425;-86
2023/08/12 06:59:14;;;;;;;;;;;;;;;22.06;53.44;101815.80;107107;1260;73885;-85
2023/08/12 07:01:54;;;;;;;;;;;;;;;22.13;53.33;101812.36;107438;1254;66861;-86
2023/08/12 07:07:32;;;;;;;;;;;;;;;22.43;53.14;101809.16;107320;1257;124280;-87
2023/08/12 07:10:18;;;;;;;;;;;;;;;22.60;52.93;101814.95;107460;1253;60218;-85
2023/08/12 07:16:48;;;;;;;;;;;;;;;23.01;52.05;101802.77;107762;1253;67171;-91
2023/08/12 07:23:14;;;;;;;;;;;;;;;23.39;51.61;101805.27;109097;1254;58925;-92
2023/08/12 07:25:54;;;;;;;;;;;;;;;23.60;51.52;101804.27;108753;1257;59416;-90
2023/08/12 07:35:17;;;;;;;;;;;;;;;24.61;50.43;101803.61;107758;1254;71137;-88
2023/08/12 07:43:57;;;;;;;;;;;;;;;25.35;48.98;101800.51;107251;1253;123658;-86
2023/08/12 07:46:37;;;;;;;;;;;;;;;25.53;48.39;101801.95;107222;1254;67642;-88
2023/08/12 07:49:05;;;;;;;;;;;;;;;25.65;48.23;101794.69;107268;1254;123997;-88
2023/08/12 07:51:51;;;;;;;;;;;;;;;25.75;48.14;101796.09;107572;1254;60550;-91
2023/08/12 07:54:58;;;;;;;;;;;;;;;25.99;47.85;101795.77;107432;1254;123706;-89
2023/08/12 08:01:04;;;;;;;;;;;;;;;26.37;47.10;101785.70;107557;1253;123747;-90
2023/08/12 08:04:01;;;;;;;;;;;;;;;26.49;46.79;101789.70;107553;1254;72828;-93
2023/08/12 08:06:51;;;;;;;;;;;;;;;26.59;46.28;101789.12;108346;1254;60701;-91
2023/08/12 08:09:43;;;;;;;;;;;;;;;26.68;46.00;101790.16;108396;1254;60443;-86
2023/08/12 08:15:25;;;;;;;;;;;;;;;27.03;45.30;101787.83;107952;1254;65766;-85
2023/08/12 08:21:22;;;;;;;;;;;;;;;27.16;44.82;101786.90;108106;1253;60336;-93
2023/08/12 08:24:11;;;;;;;;;;;;;;;27.16;44.46;101782.41;107708;1253;123909;-91
2023/08/12 08:26:51;;;;;;;;;;;;;;;27.17;44.44;101778.77;107933;1254;73928;-93
2023/08/12 08:29:22;;;;;;;;;;;;;;;27.15;44.20;101778.11;107965;1254;65931;-91
2023/08/12 08:31:52;;;;;;;;;;;;;;;27.09;44.22;101774.30;107579;1254;123553;-90
2023/08/12 08:34:20;;;;;;;;;;;;;;;27.11;44.32;101777.31;107597;1254;60442;-88
2023/08/12 08:39:42;;;;;;;;;;;;;;;27.17;44.27;101771.02;109002;1253;78664;-90
2023/08/12 08:42:09;;;;;;;;;;;;;;;27.21;43.91;101772.55;108939;1256;124806;-89
2023/08/12 08:44:37;;;;;;;;;;;;;;;27.18;43.72;101773.52;108953;1254;71875;-90
2023/08/12 08:47:08;;;;;;;;;;;;;;;27.10;43.59;101773.38;108832;1254;58428;-89
2023/08/12 08:49:39;;;;;;;;;;;;;;;26.99;43.32;101772.06;108770;1254;124700;-90
2023/08/12 08:52:06;;;;;;;;;;;;;;;26.92;43.55;101773.16;108894;1254;73912;-90
2023/08/12 08:54:33;;;;;;;;;;;;;;;26.88;43.55;101768.93;109031;1256;123225;-89
2023/08/12 08:57:20;;;;;;;;;;;;;;;26.85;43.50;101770.83;109028;1258;72583;-90
2023/08/12 08:59:50;;;;;;;;;;;;;;;26.79;43.10;101766.65;109004;1254;122891;-88
2023/08/12 09:02:17;;;;;;;;;;;;;;;26.67;43.14;101764.61;108996;1254;59823;-89
2023/08/12 09:05:13;;;;;;;;;;;;;;;26.56;43.06;101764.71;109028;1253;73712;-90
2023/08/12 09:07:40;;;;;;;;;;;;;;;26.42;43.19;101763.44;108952;1255;123247;-90
2023/08/12 09:10:07;;;;;;;;;;;;;;;26.30;43.05;101763.20;108998;1260;71203;-92
2023/08/12 09:12:42;;;;;;;;;;;;;;;26.12;43.16;101756.26;108815;1257;123326;-92
2023/08/12 09:15:09;;;;;;;;;;;;;;;26.01;43.06;101759.73;108911;1254;59546;-89
2023/08/12 09:17:36;;;;;;;;;;;;;;;25.95;43.57;101753.95;108662;1254;124517;-89
2023/08/12 09:20:09;;;;;;;;;;;;;;;25.87;43.48;101753.02;108351;1256;65683;-89
2023/08/12 09:22:40;;;;;;;;;;;;;;;25.75;43.56;101752.20;107732;1255;72853;-90
2023/08/12 09:25:15;;;;;;;;;;;;;;;25.69;43.75;101754.52;107699;1254;124502;-90
2023/08/12 09:27:43;;;;;;;;;;;;;;;25.61;43.89;101755.04;107792;1254;59727;-91
2023/08/12 09:30:11;;;;;;;;;;;;;;;25.55;43.90;101751.20;107696;1260;181182;-91
2023/08/12 09:32:38;;;;;;;;;;;;;;;25.49;43.72;101746.84;108010;1262;66168;-91
2023/08/12 09:35:08;;;;;;;;;;;;;;;25.41;43.85;101741.81;107948;1254;72235;-91
2023/08/12 09:37:35;;;;;;;;;;;;;;;25.30;44.08;101738.27;107837;1254;124208;-89
2023/08/12 09:40:05;;;;;;;;;;;;;;;25.22;44.18;101736.43;107836;1257;60368;-90
2023/08/12 09:42:32;;;;;;;;;;;;;;;25.16;44.07;101730.43;107822;1257;125035;-90
2023/08/12 09:44:59;;;;;;;;;;;;;;;25.10;44.26;101727.67;108010;1256;67254;-91
2023/08/12 09:47:27;;;;;;;;;;;;;;;25.01;44.22;101727.12;107707;1257;124381;-91
2023/08/12 09:49:58;;;;;;;;;;;;;;;24.93;44.45;101723.34;107445;1262;60335;-92
2023/08/12 09:52:26;;;;;;;;;;;;;;;24.87;44.54;101721.30;108857;1254;62452;-90
2023/08/12 09:54:53;;;;;;;;;;;;;;;24.82;44.65;101724.27;108918;1261;123966;-89
2023/08/12 09:57:20;;;;;;;;;;;;;;;24.81;44.82;101723.21;108856;1255;67469;-90
2023/08/12 09:59:47;;;;;;;;;;;;;;;24.78;44.72;101717.14;108666;1257;124365;-90
2023/08/12 10:02:18;;;;;;;;;;;;;;;24.75;44.88;101714.53;108912;1258;58698;-90
2023/08/12 10:04:50;;;;;;;;;;;;;;;24.73;45.23;101717.25;108850;1255;60241;-91
2023/08/12 10:07:20;;;;;;;;;;;;;;;24.71;45.10;101717.29;108796;1256;124935;-90
2023/08/12 10:09:47;;;;;;;;;;;;;;;24.69;45.14;101716.78;108818;1259;66442;-90
2023/08/12 10:12:18;;;;;;;;;;;;;;;24.70;45.34;101711.57;108774;1255;124433;-90
2023/08/12 10:14:47;;;;;;;;;;;;;;;24.70;45.13;101709.60;108682;1257;58392;-91
2023/08/12 10:17:14;;;;;;;;;;;;;;;24.70;45.21;101709.77;104945;1257;5173334;-91
2023/08/12 10:19:47;;;;;;;;;;;;;;;24.70;45.26;101709.23;108793;1257;124723;-90
2023/08/12 10:22:14;;;;;;;;;;;;;;;24.68;45.18;101705.33;108773;1257;66874;-89
2023/08/12 10:24:44;;;;;;;;;;;;;;;24.66;45.15;101710.38;108853;1256;125131;-88
2023/08/12 10:27:12;;;;;;;;;;;;;;;24.65;45.17;101706.45;108856;1256;58568;-89
2023/08/12 10:29:42;;;;;;;;;;;;;;;24.64;45.19;101705.92;108692;1256;125039;-90
2023/08/12 10:32:13;;;;;;;;;;;;;;;24.65;45.07;101706.27;108882;1254;74794;-90
2023/08/12 10:34:53;;;;;;;;;;;;;;;24.63;45.31;101706.48;108760;1256;67981;-91
2023/08/12 10:37:32;;;;;;;;;;;;;;;24.61;45.42;101707.23;108685;1259;124234;-91
2023/08/12 10:40:11;;;;;;;;;;;;;;;24.57;45.57;101705.15;108829;1259;58634;-90
2023/08/12 10:43:13;;;;;;;;;;;;;;;24.51;45.78;101702.73;108896;1254;61040;-90
2023/08/12 10:45:48;;;;;;;;;;;;;;;24.50;45.91;101697.19;109078;1254;74393;-92
2023/08/12 10:48:31;;;;;;;;;;;;;;;24.53;45.97;101697.52;108843;1257;124619;-92
2023/08/12 10:51:12;;;;;;;;;;;;;;;24.56;45.93;101696.03;107906;1255;72073;-88
2023/08/12 10:53:39;;;;;;;;;;;;;;;24.58;45.84;101687.92;108165;1255;124025;-91
2023/08/12 10:56:27;;;;;;;;;;;;;;;24.61;45.91;101686.77;108818;1254;59468;-96
2023/08/12 11:02:40;;;;;;;;;;;;;;;;;;;;;
2023/08/12 11:05:10;;;;;;;;;;;;;;;24.68;45.93;101676.23;108125;1259;73255;-95
2023/08/12 11:08:06;;;;;;;;;;;;;;;24.71;45.83;101672.24;108091;1259;124972;-92
2023/08/12 11:10:43;;;;;;;;;;;;;;;24.75;45.88;101667.67;108542;1259;59784;-92
2023/08/12 11:13:52;;;;;;;;;;;;;;;;;;;;;
2023/08/12 11:16:52;;;;;;;;;;;;;;;24.82;45.97;101663.05;108296;1260;68190;-93
2023/08/12 11:19:41;;;;;;;;;;;;;;;24.85;45.92;101661.02;108120;1259;122662;-93
2023/08/12 11:22:29;;;;;;;;;;;;;;;;;;;;;
2023/08/12 11:25:14;;;;;;;;;;;;;;;24.86;45.77;101655.79;108018;1258;124400;-90
2023/08/12 11:27:49;;;;;;;;;;;;;;;24.92;45.90;101659.44;107736;1259;74472;-91
2023/08/12 11:30:17;;;;;;;;;;;;;;;24.96;45.76;101654.52;107479;1259;124458;-90
2023/08/12 11:33:01;;;;;;;;;;;;;;;24.99;45.76;101652.64;107789;1258;71479;-91
2023/08/12 11:35:31;;;;;;;;;;;;;;;25.02;45.82;101650.43;107700;1254;60331;-91
2023/08/12 11:38:10;;;;;;;;;;;;;;;25.05;45.84;101646.79;108031;1261;124265;-91
2023/08/12 11:40:41;;;;;;;;;;;;;;;25.09;45.76;101643.46;108176;1261;74602;-92
2023/08/12 11:43:15;;;;;;;;;;;;;;;25.11;45.76;101643.05;108262;1255;123759;-93
2023/08/12 11:45:57;;;;;;;;;;;;;;;25.12;45.59;101641.79;108352;1254;81197;-87
2023/08/12 11:48:57;;;;;;;;;;;;;;;25.13;45.48;101639.42;107003;1255;124166;-88
2023/08/12 11:51:49;;;;;;;;;;;;;;;25.16;45.36;101636.48;107603;1254;60444;-92
2023/08/12 12:00:51;;;;;;;;;;;;;;;25.09;45.16;101623.35;107340;1254;123758;-88
2023/08/12 12:03:20;;;;;;;;;;;;;;;25.06;45.09;101621.44;107583;1257;60422;-95
2023/08/12 12:06:17;;;;;;;;;;;;;;;25.06;45.14;101618.58;107671;1256;59102;-93
2023/08/12 12:08:52;;;;;;;;;;;;;;;25.09;45.39;101616.72;108475;1256;73929;-93
2023/08/12 12:11:19;;;;;;;;;;;;;;;25.11;45.62;101615.77;107250;1256;65782;-93
2023/08/12 12:14:11;;;;;;;;;;;;;;;25.15;45.81;101611.91;107067;1259;124708;-92
2023/08/12 12:16:48;;;;;;;;;;;;;;;25.18;45.73;101605.73;107044;1260;60562;-91
2023/08/12 12:19:17;;;;;;;;;;;;;;;25.22;45.70;101602.96;107094;1260;124073;-92
2023/08/12 12:22:05;;;;;;;;;;;;;;;25.27;45.87;101604.30;107430;1259;73906;-92
2023/08/12 12:24:46;;;;;;;;;;;;;;;25.30;45.77;101601.92;107251;1262;123905;-93
2023/08/12 12:27:15;;;;;;;;;;;;;;;25.32;45.83;101599.34;107071;1260;72492;-93
2023/08/12 12:30:23;;;;;;;;;;;;;;;25.35;45.63;101598.36;107169;1261;60930;-93
2023/08/12 12:33:10;;;;;;;;;;;;;;;25.39;45.62;101595.79;106785;1264;60602;-91
2023/08/12 12:35:49;;;;;;;;;;;;;;;25.45;45.29;101591.13;106669;1267;73674;-92
2023/08/12 12:41:25;;;;;;;;;;;;;;;25.52;45.56;101589.90;106462;1269;71614;-91
2023/08/12 12:44:04;;;;;;;;;;;;;;;25.56;45.74;101594.45;106513;1265;124340;-92
2023/08/12 12:46:32;;;;;;;;;;;;;;;25.59;45.34;101594.57;107045;1263;60306;-90
2023/08/12 12:48:59;;;;;;;;;;;;;;;25.63;45.21;101594.11;107213;1260;123768;-93
2023/08/12 12:51:41;;;;;;;;;;;;;;;25.70;44.94;101585.33;107231;1260;67478;-92
2023/08/12 12:54:30;;;;;;;;;;;;;;;25.77;44.73;101583.35;107058;1260;70731;-90
2023/08/12 13:03:53;;;;;;;;;;;;;;;25.88;44.74;101572.11;106612;1267;73774;-84
2023/08/12 13:06:21;;;;;;;;;;;;;;;25.91;44.75;101567.73;106578;1267;68211;-82
2023/08/12 13:08:51;;;;;;;;;;;;;;;25.96;44.82;101564.74;106636;1267;72779;-83
2023/08/12 13:11:24;;;;;;;;;;;;;;;25.99;44.74;101561.95;106723;1270;60457;-83
2023/08/12 13:13:57;;;;;;;;;;;;;;;26.00;44.89;101561.03;106492;1266;123792;-84
2023/08/12 13:16:29;;;;;;;;;;;;;;;26.04;44.56;101560.77;106557;1260;72656;-83
2023/08/12 13:18:58;;;;;;;;;;;;;;;26.05;44.46;101557.49;106803;1261;124463;-84
2023/08/12 13:21:33;;;;;;;;;;;;;;;26.04;44.47;101554.09;106995;1261;72727;-81
2023/08/12 13:24:15;;;;;;;;;;;;;;;26.08;44.56;101558.50;106785;1261;60409;-83
2023/08/12 13:26:43;;;;;;;;;;;;;;;26.12;44.42;101561.97;106967;1261;123732;-82
2023/08/12 13:29:16;;;;;;;;;;;;;;;26.19;44.57;101561.24;106956;1262;72593;-85
2023/08/12 13:31:43;;;;;;;;;;;;;;;26.28;44.39;101561.36;107033;1260;123776;-82
2023/08/12 13:34:10;;;;;;;;;;;;;;;26.34;44.41;101554.53;107158;1260;72521;-82
2023/08/12 13:36:40;;;;;;;;;;;;;;;26.41;44.15;101553.45;107059;1257;124504;-81
2023/08/12 13:39:12;;;;;;;;;;;;;;;26.46;43.97;101551.15;107590;1256;59080;-84
2023/08/12 13:41:40;;;;;;;;;;;;;;;26.51;43.89;101549.02;107715;1257;72459;-82
2023/08/12 13:44:35;;;;;;;;;;;;;;;26.55;44.06;101547.09;107288;1254;123799;-84
2023/08/12 13:47:38;;;;;;;;;;;;;;;26.60;43.91;101544.83;107358;1257;73261;-89
2023/08/12 13:50:32;;;;;;;;;;;;;;;26.64;43.79;101540.38;107065;1259;123885;-87
2023/08/12 13:53:03;;;;;;;;;;;;;;;26.66;43.63;101537.27;107225;1256;59869;-88
2023/08/12 13:55:47;;;;;;;;;;;;;;;26.70;43.83;101528.52;106834;1256;124001;-87
2023/08/12 13:58:14;;;;;;;;;;;;;;;26.77;43.67;101528.48;107073;1256;65260;-86
2023/08/12 14:00:51;;;;;;;;;;;;;;;26.81;43.88;101522.05;107020;1256;124230;-83
2023/08/12 14:03:22;;;;;;;;;;;;;;;26.87;43.71;101525.11;107246;1256;59028;-82
2023/08/12 14:05:59;;;;;;;;;;;;;;;27.02;43.59;101517.47;107442;1256;60009;-83
2023/08/12 14:08:27;;;;;;;;;;;;;;;27.10;43.46;101513.77;107341;1256;123899;-82
2023/08/12 14:10:56;;;;;;;;;;;;;;;27.11;43.49;101511.58;107665;1254;67192;-81
2023/08/12 14:13:30;;;;;;;;;;;;;;;27.09;43.26;101509.29;107619;1254;124439;-80
2023/08/12 14:16:00;;;;;;;;;;;;;;;27.07;43.31;101506.48;107494;1256;60455;-82
2023/08/12 14:18:34;;;;;;;;;;;;;;;27.07;43.27;101501.83;107533;1254;124026;-83
2023/08/12 14:21:13;;;;;;;;;;;;;;;27.09;43.40;101497.77;107602;1256;73587;-79
2023/08/12 14:23:42;;;;;;;;;;;;;;;27.12;43.23;101491.35;107688;1256;66043;-81
2023/08/12 14:26:17;;;;;;;;;;;;;;;27.15;43.08;101485.50;107246;1257;124083;-84
2023/08/12 14:29:02;;;;;;;;;;;;;;;27.18;43.03;101481.83;107106;1255;60706;-87
2023/08/12 14:31:56;;;;;;;;;;;;;;;27.09;43.04;101480.33;107364;1256;124000;-85
2023/08/12 14:34:43;;;;;;;;;;;;;;;26.90;43.07;101481.81;107659;1255;73917;-84
2023/08/12 14:37:11;;;;;;;;;;;;;;;26.74;43.04;101480.15;107407;1256;124129;-87